Time;durP1;ratioP1;P1;durP2;ratioP2;P2;SDS_P1;SDS_P2;PMS_P1;PMS_P2;Temp;Humidity;BMP_temperature;BMP_pressure;BME280_temperature;BME280_humidity;BME280_pressure;Samples;Min_cycle;Max_cycle;Signal;HPM_P1;HPM_P2
2021/12/18 00:01:06;;;;;;;4.80;3.17;;;5.40;82.00;;;;;;5093934;28;22363;-57
2021/12/18 00:03:32;;;;;;;3.80;3.13;;;5.40;81.40;;;;;;5095904;28;20088;-58
2021/12/18 00:05:58;;;;;;;3.30;3.00;;;5.30;81.20;;;;;;5089040;28;20024;-54
2021/12/18 00:08:24;;;;;;;3.50;2.80;;;5.40;81.30;;;;;;5092629;28;20036;-56
2021/12/18 00:10:49;;;;;;;3.85;3.13;;;5.30;81.10;;;;;;5094019;28;20024;-59
2021/12/18 00:13:16;;;;;;;3.35;2.72;;;5.30;81.10;;;;;;5093394;28;20029;-57
2021/12/18 00:15:42;;;;;;;3.22;2.65;;;5.30;81.30;;;;;;5092791;28;20028;-57
2021/12/18 00:18:07;;;;;;;3.72;3.30;;;5.30;81.10;;;;;;5096250;28;20471;-59
2021/12/18 00:20:36;;;;;;;4.60;3.20;;;5.30;81.00;;;;;;5087062;28;20024;-59
2021/12/18 00:23:02;;;;;;;3.80;2.90;;;5.20;80.90;;;;;;5088506;28;20052;-57
2021/12/18 00:25:27;;;;;;;3.55;3.17;;;5.30;81.00;;;;;;5094193;28;20017;-59
2021/12/18 00:27:53;;;;;;;3.65;2.97;;;5.20;80.90;;;;;;5095512;28;20039;-59
2021/12/18 00:30:19;;;;;;;3.55;3.20;;;5.20;80.90;;;;;;5090854;28;20383;-58
2021/12/18 00:32:45;;;;;;;3.50;2.90;;;5.20;81.00;;;;;;5091259;28;20036;-59
2021/12/18 00:35:10;;;;;;;3.25;2.92;;;5.20;81.10;;;;;;5092138;28;20024;-58
2021/12/18 00:37:36;;;;;;;3.20;2.90;;;5.20;81.20;;;;;;5086557;28;20024;-57
2021/12/18 00:40:08;;;;;;;3.17;2.90;;;5.20;81.20;;;;;;5089348;28;20024;-57
2021/12/18 00:45:08;;;;;;;3.53;3.08;;;5.20;81.20;;;;;;5089883;28;20031;-57
2021/12/18 00:47:34;;;;;;;3.45;3.13;;;5.20;81.00;;;;;;5093356;28;20495;-58
2021/12/18 00:49:59;;;;;;;2.90;2.70;;;5.20;81.20;;;;;;5090660;28;20012;-58
2021/12/18 00:52:25;;;;;;;4.10;3.10;;;5.20;81.20;;;;;;5089024;28;20039;-59
2021/12/18 00:54:51;;;;;;;3.65;3.05;;;5.20;81.20;;;;;;5093258;28;20028;-57
2021/12/18 00:57:17;;;;;;;3.30;3.00;;;5.20;81.40;;;;;;5089349;28;20459;-57
2021/12/18 00:59:43;;;;;;;4.95;3.45;;;5.20;81.30;;;;;;5094461;28;20028;-58
2021/12/18 01:02:08;;;;;;;4.45;3.50;;;5.10;81.20;;;;;;5089914;28;20388;-58
2021/12/18 01:04:34;;;;;;;3.63;3.25;;;5.10;81.30;;;;;;5086805;28;20028;-58
2021/12/18 01:07:00;;;;;;;3.90;3.47;;;5.10;81.30;;;;;;5093011;28;20031;-59
2021/12/18 01:12:29;;;;;;;4.13;3.35;;;5.00;82.10;;;;;;5044640;28;20381;-57
2021/12/18 01:15:18;;;;;;;4.45;3.38;;;5.00;81.90;;;;;;5080545;28;20456;-59
2021/12/18 01:23:18;;;;;;;3.92;3.50;;;5.00;82.50;;;;;;5082744;28;20051;-57
2021/12/18 01:25:44;;;;;;;4.13;3.70;;;5.00;82.70;;;;;;5089372;28;20020;-57
2021/12/18 01:28:10;;;;;;;4.38;3.88;;;4.90;82.70;;;;;;5096874;28;20545;-58
2021/12/18 01:30:36;;;;;;;4.07;3.50;;;4.90;82.80;;;;;;5095116;28;20016;-57
2021/12/18 01:33:03;;;;;;;4.00;3.40;;;4.90;83.00;;;;;;5096234;28;20028;-56
2021/12/18 01:35:28;;;;;;;4.15;3.60;;;4.90;83.00;;;;;;5095950;28;20048;-57
2021/12/18 01:37:54;;;;;;;3.95;3.53;;;4.90;83.10;;;;;;5093255;28;20024;-57
2021/12/18 01:40:23;;;;;;;3.95;3.53;;;4.90;83.20;;;;;;5084828;28;20099;-59
2021/12/18 01:45:35;;;;;;;4.75;3.47;;;4.90;83.40;;;;;;5077412;28;20503;-57
2021/12/18 01:53:29;;;;;;;4.25;3.58;;;4.80;83.60;;;;;;5085040;28;20545;-57
2021/12/18 01:55:55;;;;;;;4.07;3.53;;;4.80;83.60;;;;;;5094414;28;20032;-59
2021/12/18 01:58:24;;;;;;;3.55;3.25;;;4.80;83.70;;;;;;5080102;28;20036;-57
2021/12/18 02:00:52;;;;;;;3.95;3.55;;;4.80;83.70;;;;;;5094970;28;20111;-59
2021/12/18 02:03:19;;;;;;;3.78;3.30;;;4.80;83.60;;;;;;5090992;28;20024;-58
2021/12/18 02:05:48;;;;;;;3.92;3.55;;;4.80;83.80;;;;;;5075538;28;20025;-58
2021/12/18 02:08:18;;;;;;;4.15;3.70;;;4.80;83.70;;;;;;5079028;28;20104;-57
2021/12/18 02:10:52;;;;;;;3.97;3.58;;;4.80;83.80;;;;;;5087717;28;20380;-59
2021/12/18 02:21:29;;;;;;;3.45;3.15;;;4.80;84.00;;;;;;5075484;28;20035;-58
2021/12/18 02:23:56;;;;;;;3.80;3.42;;;4.80;84.20;;;;;;5092770;28;20450;-57
2021/12/18 02:26:22;;;;;;;4.32;3.70;;;4.80;84.00;;;;;;5091593;28;20020;-58
2021/12/18 02:28:50;;;;;;;3.85;3.08;;;4.80;84.00;;;;;;5074977;28;20023;-55
2021/12/18 02:31:16;;;;;;;3.63;3.15;;;4.70;83.90;;;;;;5081564;28;20016;-59
2021/12/18 02:33:43;;;;;;;3.47;3.10;;;4.70;83.80;;;;;;5084267;28;20561;-57
2021/12/18 02:36:12;;;;;;;3.50;3.10;;;4.70;84.00;;;;;;5084016;28;20098;-59
2021/12/18 02:41:45;;;;;;;3.17;2.88;;;4.70;84.20;;;;;;5063801;28;20040;-57
2021/12/18 02:44:12;;;;;;;2.97;2.72;;;4.70;84.20;;;;;;5091344;28;20031;-56
2021/12/18 02:46:39;;;;;;;3.42;2.90;;;4.70;84.20;;;;;;5076400;28;20038;-58
2021/12/18 02:49:11;;;;;;;3.75;3.17;;;4.70;84.30;;;;;;5085300;28;20016;-59
2021/12/18 02:51:37;;;;;;;3.38;3.08;;;4.70;84.30;;;;;;5093662;28;20030;-57
2021/12/18 02:54:03;;;;;;;3.10;2.80;;;4.70;84.40;;;;;;5077737;28;20035;-55
2021/12/18 02:56:29;;;;;;;3.28;2.97;;;4.70;84.40;;;;;;5074924;28;20020;-59
2021/12/18 02:59:04;;;;;;;3.03;2.72;;;4.70;84.30;;;;;;5082696;28;20028;-57
2021/12/18 03:01:31;;;;;;;3.40;3.10;;;4.70;84.40;;;;;;5093360;28;20028;-58
2021/12/18 03:03:59;;;;;;;3.33;3.03;;;4.70;84.40;;;;;;5085644;28;20460;-59
2021/12/18 03:06:33;;;;;;;3.70;3.10;;;4.70;84.40;;;;;;5093866;28;20048;-55
2021/12/18 03:25:38;;;;;;;3.22;2.95;;;4.60;84.30;;;;;;5086374;28;20031;-57
2021/12/18 03:28:07;;;;;;;4.20;3.13;;;4.60;84.40;;;;;;5076664;28;20468;-57
2021/12/18 03:30:34;;;;;;;3.17;2.90;;;4.60;84.10;;;;;;5083463;28;20024;-57
2021/12/18 03:33:00;;;;;;;4.35;3.00;;;4.60;84.30;;;;;;5073631;28;20392;-56
2021/12/18 03:35:26;;;;;;;3.35;3.05;;;4.60;84.10;;;;;;5084665;28;20024;-58
2021/12/18 03:37:53;;;;;;;3.70;3.22;;;4.60;84.20;;;;;;5077137;28;20059;-57
2021/12/18 03:40:22;;;;;;;3.45;3.15;;;4.60;84.20;;;;;;5078925;28;20450;-56
2021/12/18 03:42:49;;;;;;;3.50;2.90;;;4.60;84.20;;;;;;5088094;28;20391;-57
2021/12/18 03:45:17;;;;;;;3.13;2.83;;;4.60;84.00;;;;;;5082649;28;20050;-57
2021/12/18 03:47:44;;;;;;;3.80;3.28;;;4.70;83.90;;;;;;5083704;28;20418;-57
2021/12/18 03:50:10;;;;;;;3.20;2.90;;;4.70;83.80;;;;;;5087035;28;20077;-58
2021/12/18 03:52:35;;;;;;;3.72;3.00;;;4.60;83.80;;;;;;5082430;28;20469;-59
2021/12/18 03:55:01;;;;;;;3.25;2.95;;;4.70;83.90;;;;;;5074461;28;20060;-57
2021/12/18 03:57:27;;;;;;;3.40;3.10;;;4.70;83.90;;;;;;5083624;28;20027;-58
2021/12/18 03:59:53;;;;;;;3.70;3.28;;;4.70;83.80;;;;;;5089215;28;20016;-58
2021/12/18 04:02:19;;;;;;;4.18;3.30;;;4.70;83.90;;;;;;5076885;28;20077;-58
2021/12/18 04:04:45;;;;;;;3.17;2.88;;;4.70;83.70;;;;;;5081180;28;20036;-58
2021/12/18 04:07:11;;;;;;;3.45;2.92;;;4.70;83.70;;;;;;5073556;28;20029;-57
2021/12/18 04:09:36;;;;;;;4.13;3.08;;;4.70;83.70;;;;;;5074325;28;20427;-58
2021/12/18 04:12:03;;;;;;;3.50;3.15;;;4.70;83.60;;;;;;5087032;28;20111;-57
2021/12/18 04:14:29;;;;;;;3.17;2.88;;;4.70;83.50;;;;;;5088078;28;20040;-58
2021/12/18 04:16:55;;;;;;;3.28;2.97;;;4.70;83.50;;;;;;5087760;28;20167;-57
2021/12/18 04:19:21;;;;;;;3.05;2.80;;;4.70;83.50;;;;;;5079351;28;20482;-56
2021/12/18 04:21:47;;;;;;;3.45;2.90;;;4.60;83.30;;;;;;5088752;28;20024;-57
2021/12/18 04:24:13;;;;;;;3.88;3.30;;;4.60;83.20;;;;;;5088655;28;20028;-58
2021/12/18 04:26:38;;;;;;;3.20;2.90;;;4.60;83.50;;;;;;5084219;28;20050;-58
2021/12/18 04:29:08;;;;;;;3.22;2.92;;;4.60;83.50;;;;;;5075227;28;20024;-56
2021/12/18 04:31:35;;;;;;;3.20;2.90;;;4.60;83.60;;;;;;5085068;28;20081;-58
2021/12/18 04:34:02;;;;;;;3.30;3.00;;;4.60;83.40;;;;;;5088518;28;20047;-57
2021/12/18 04:36:27;;;;;;;2.83;2.58;;;4.60;83.10;;;;;;5077311;28;20112;-57
2021/12/18 04:38:53;;;;;;;3.30;3.00;;;4.60;83.00;;;;;;5079773;28;20545;-58
2021/12/18 04:41:37;;;;;;;3.30;3.00;;;4.60;83.10;;;;;;5097390;28;20115;-55
2021/12/18 04:44:03;;;;;;;3.05;2.75;;;4.60;83.20;;;;;;5097225;28;20103;-58
2021/12/18 04:46:29;;;;;;;3.75;3.00;;;4.60;83.20;;;;;;5092001;28;20500;-58
2021/12/18 04:48:55;;;;;;;2.90;2.58;;;4.60;83.50;;;;;;5082687;28;20016;-57
2021/12/18 04:51:21;;;;;;;3.10;2.80;;;4.60;83.50;;;;;;5080584;28;20032;-58
2021/12/18 04:53:47;;;;;;;3.53;2.78;;;4.60;83.40;;;;;;5083546;28;20496;-59
2021/12/18 04:56:12;;;;;;;2.95;2.58;;;4.60;83.40;;;;;;5092210;28;20024;-56
2021/12/18 04:58:38;;;;;;;2.92;2.63;;;4.60;83.50;;;;;;5097129;28;20024;-59
2021/12/18 05:01:04;;;;;;;4.03;3.17;;;4.60;83.20;;;;;;5079627;28;20103;-58
2021/12/18 05:03:30;;;;;;;3.22;2.80;;;4.60;83.20;;;;;;5080089;28;20453;-58
2021/12/18 05:05:59;;;;;;;3.60;2.80;;;4.60;83.20;;;;;;5088128;28;20032;-58
2021/12/18 05:08:24;;;;;;;2.47;2.38;;;4.60;83.30;;;;;;5088322;28;20032;-56
2021/12/18 05:10:50;;;;;;;2.88;2.60;;;4.50;83.40;;;;;;5090596;28;20047;-58
2021/12/18 05:13:16;;;;;;;2.72;2.53;;;4.50;83.30;;;;;;5076053;28;20024;-57
2021/12/18 05:15:42;;;;;;;2.95;2.75;;;4.50;83.30;;;;;;5082109;28;20101;-56
2021/12/18 05:18:07;;;;;;;3.05;2.70;;;4.50;83.50;;;;;;5096631;28;20020;-56
2021/12/18 05:20:33;;;;;;;2.95;2.75;;;4.50;83.60;;;;;;5090291;28;20024;-58
2021/12/18 05:22:59;;;;;;;2.97;2.72;;;4.50;83.90;;;;;;5078191;28;20056;-59
2021/12/18 05:25:24;;;;;;;2.70;2.50;;;4.40;83.90;;;;;;5079965;28;20028;-57
2021/12/18 05:27:50;;;;;;;3.00;2.70;;;4.40;84.00;;;;;;5080944;28;20025;-55
2021/12/18 05:30:16;;;;;;;2.72;2.53;;;4.40;84.20;;;;;;5088676;28;20020;-58
2021/12/18 05:32:42;;;;;;;3.00;2.65;;;4.40;84.20;;;;;;5091010;28;20024;-58
2021/12/18 05:35:08;;;;;;;3.05;2.72;;;4.40;84.30;;;;;;5084660;28;20013;-58
2021/12/18 05:37:51;;;;;;;6.28;2.97;;;4.40;84.10;;;;;;5078226;28;20452;-58
2021/12/18 05:40:22;;;;;;;2.80;2.60;;;4.40;84.10;;;;;;5075443;28;20025;-59
2021/12/18 05:42:50;;;;;;;3.17;2.72;;;4.40;83.80;;;;;;5076349;28;20028;-58
2021/12/18 05:45:16;;;;;;;3.45;2.90;;;4.40;83.60;;;;;;5078106;28;20514;-59
2021/12/18 05:47:43;;;;;;;2.95;2.65;;;4.50;83.30;;;;;;5084709;28;20465;-57
2021/12/18 05:50:11;;;;;;;2.80;2.53;;;4.50;83.20;;;;;;5090089;28;20074;-57
2021/12/18 05:52:38;;;;;;;2.50;2.30;;;4.50;83.20;;;;;;5077654;28;20089;-58
2021/12/18 05:55:04;;;;;;;2.50;2.30;;;4.50;83.10;;;;;;5081925;28;20116;-58
2021/12/18 05:57:29;;;;;;;2.67;2.47;;;4.50;82.90;;;;;;5096383;28;20032;-56
2021/12/18 05:59:55;;;;;;;2.35;2.15;;;4.50;82.70;;;;;;5091547;28;20427;-58
2021/12/18 06:02:21;;;;;;;2.75;2.50;;;4.40;82.50;;;;;;5082027;28;20431;-57
2021/12/18 06:04:47;;;;;;;2.70;2.50;;;4.50;82.70;;;;;;5091195;28;20028;-55
2021/12/18 06:07:27;;;;;;;2.17;2.08;;;4.50;82.50;;;;;;5090934;28;20024;-59
2021/12/18 06:09:53;;;;;;;2.67;2.45;;;4.50;82.50;;;;;;5080400;28;20016;-58
2021/12/18 06:12:19;;;;;;;2.17;2.08;;;4.50;82.20;;;;;;5086708;28;20068;-56
2021/12/18 06:14:45;;;;;;;2.33;2.13;;;4.50;82.10;;;;;;5093465;28;20110;-57
2021/12/18 06:17:11;;;;;;;2.42;2.22;;;4.40;82.20;;;;;;5075032;28;20369;-58
2021/12/18 06:19:37;;;;;;;2.50;2.30;;;4.40;82.30;;;;;;5074677;28;20043;-59
2021/12/18 06:22:03;;;;;;;2.55;2.30;;;4.40;82.40;;;;;;5074911;28;20492;-58
2021/12/18 06:24:28;;;;;;;2.40;2.30;;;4.40;82.60;;;;;;5074995;28;20430;-58
2021/12/18 06:26:55;;;;;;;2.17;2.00;;;4.40;82.70;;;;;;5074816;28;20035;-57
2021/12/18 06:29:21;;;;;;;2.42;2.22;;;4.40;82.90;;;;;;5075939;28;20028;-57
2021/12/18 06:31:47;;;;;;;2.50;2.30;;;4.40;83.20;;;;;;5082416;28;20021;-58
2021/12/18 06:34:13;;;;;;;2.50;2.30;;;4.40;82.90;;;;;;5075317;28;20384;-57
2021/12/18 06:36:39;;;;;;;2.58;2.38;;;4.40;83.10;;;;;;5079493;28;20107;-58
2021/12/18 06:39:05;;;;;;;2.50;2.20;;;4.40;83.20;;;;;;5080680;28;20031;-58
2021/12/18 06:41:31;;;;;;;2.80;2.60;;;4.40;83.20;;;;;;5075317;28;20036;-59
2021/12/18 06:43:57;;;;;;;2.92;2.40;;;4.40;83.10;;;;;;5074268;28;20029;-58
2021/12/18 06:46:22;;;;;;;2.78;2.55;;;4.40;83.00;;;;;;5080991;28;20028;-57
2021/12/18 06:48:48;;;;;;;2.42;2.20;;;4.50;82.90;;;;;;5086939;28;20024;-58
2021/12/18 06:51:16;;;;;;;3.85;2.50;;;4.50;82.80;;;;;;5094744;28;20034;-59
2021/12/18 06:53:42;;;;;;;2.60;2.40;;;4.50;82.70;;;;;;5094150;28;20047;-58
2021/12/18 06:56:08;;;;;;;2.60;2.40;;;4.50;82.50;;;;;;5087209;28;20302;-58
2021/12/18 06:58:33;;;;;;;2.60;2.40;;;4.50;82.40;;;;;;5094764;28;20052;-57
2021/12/18 07:00:59;;;;;;;3.17;2.60;;;4.50;82.40;;;;;;5088439;28;20493;-57
2021/12/18 07:03:25;;;;;;;2.65;2.45;;;4.50;82.40;;;;;;5082137;28;20024;-57
2021/12/18 07:05:51;;;;;;;2.70;2.50;;;4.50;82.20;;;;;;5090414;28;20735;-58
2021/12/18 07:08:17;;;;;;;2.83;2.40;;;4.50;82.30;;;;;;5087129;28;20033;-58
2021/12/18 07:10:43;;;;;;;3.05;2.38;;;4.60;82.30;;;;;;5093032;28;20028;-54
2021/12/18 07:13:09;;;;;;;2.80;2.42;;;4.60;82.20;;;;;;5077591;28;20433;-58
2021/12/18 07:15:35;;;;;;;2.33;2.13;;;4.60;82.10;;;;;;5077283;28;20039;-58
2021/12/18 07:18:00;;;;;;;2.60;2.40;;;4.60;82.00;;;;;;5083151;28;20096;-58
2021/12/18 07:20:27;;;;;;;2.53;2.33;;;4.60;81.70;;;;;;5085360;28;20020;-55
2021/12/18 07:22:54;;;;;;;2.58;2.38;;;4.60;81.20;;;;;;5073910;28;20106;-59
2021/12/18 07:25:19;;;;;;;3.30;2.33;;;4.60;81.10;;;;;;5083122;28;20076;-58
2021/12/18 07:27:46;;;;;;;2.53;2.33;;;4.60;81.10;;;;;;5078150;28;20107;-57
2021/12/18 07:30:13;;;;;;;2.65;2.40;;;4.60;81.10;;;;;;5073660;28;20032;-56
2021/12/18 07:32:39;;;;;;;3.25;2.58;;;4.60;81.10;;;;;;5077201;28;20052;-55
2021/12/18 07:35:06;;;;;;;2.50;2.30;;;4.70;80.80;;;;;;5079389;28;20055;-57
2021/12/18 07:37:32;;;;;;;2.70;2.50;;;4.70;80.60;;;;;;5074568;28;20016;-55
2021/12/18 07:39:58;;;;;;;2.25;2.15;;;4.70;80.50;;;;;;5087146;28;20031;-56
2021/12/18 07:42:23;;;;;;;2.75;2.55;;;4.70;80.60;;;;;;5079692;28;20079;-57
2021/12/18 07:44:50;;;;;;;2.50;2.30;;;4.70;80.50;;;;;;5074235;28;20497;-56
2021/12/18 07:47:17;;;;;;;2.85;2.42;;;4.80;80.40;;;;;;5073803;28;20051;-55
2021/12/18 07:49:43;;;;;;;2.75;2.47;;;4.80;80.30;;;;;;5073897;28;20021;-57
2021/12/18 07:52:08;;;;;;;2.67;2.38;;;4.80;80.20;;;;;;5081199;28;20024;-58
2021/12/18 07:54:34;;;;;;;2.70;2.50;;;4.80;80.00;;;;;;5079062;28;20039;-58
2021/12/18 07:57:00;;;;;;;2.38;2.17;;;4.80;80.00;;;;;;5084120;28;20035;-58
2021/12/18 07:59:25;;;;;;;2.60;2.40;;;4.80;79.90;;;;;;5085555;28;20538;-59
2021/12/18 08:01:51;;;;;;;2.63;2.42;;;4.80;79.90;;;;;;5078659;28;20036;-56
2021/12/18 08:04:17;;;;;;;2.45;2.20;;;4.80;80.00;;;;;;5081272;28;20033;-58
2021/12/18 08:06:43;;;;;;;2.40;2.20;;;4.80;79.90;;;;;;5082985;28;20025;-58
2021/12/18 08:09:08;;;;;;;2.47;2.28;;;4.80;79.70;;;;;;5087138;28;20062;-55
2021/12/18 08:11:34;;;;;;;2.30;2.10;;;4.80;79.70;;;;;;5084137;28;20510;-58
2021/12/18 08:14:00;;;;;;;2.55;2.35;;;4.80;79.40;;;;;;5082930;28;20080;-57
2021/12/18 08:16:26;;;;;;;2.20;2.10;;;4.80;79.60;;;;;;5077488;28;20103;-57
2021/12/18 08:18:51;;;;;;;2.10;2.00;;;4.80;79.20;;;;;;5083869;28;20028;-57
2021/12/18 08:21:17;;;;;;;2.50;2.30;;;4.90;79.00;;;;;;5093170;28;20028;-56
2021/12/18 08:23:43;;;;;;;2.53;2.33;;;4.90;79.00;;;;;;5086766;28;20036;-58
2021/12/18 08:26:08;;;;;;;2.22;2.13;;;4.90;78.80;;;;;;5083496;28;20028;-57
2021/12/18 08:28:34;;;;;;;2.42;2.22;;;4.90;78.90;;;;;;5092030;28;20028;-58
2021/12/18 08:31:00;;;;;;;2.40;2.20;;;4.80;78.80;;;;;;5088209;28;20095;-59
2021/12/18 08:33:26;;;;;;;2.50;2.30;;;4.80;78.60;;;;;;5086345;28;20503;-58
2021/12/18 08:35:52;;;;;;;2.42;2.22;;;4.80;78.60;;;;;;5084267;28;20111;-58
2021/12/18 08:38:18;;;;;;;2.38;2.17;;;4.80;78.60;;;;;;5091519;28;20073;-57
2021/12/18 08:40:45;;;;;;;2.30;2.03;;;4.80;78.70;;;;;;5085509;28;20021;-56
2021/12/18 08:43:11;;;;;;;2.00;1.90;;;4.80;78.80;;;;;;5083780;28;20074;-59
2021/12/18 08:45:38;;;;;;;1.90;1.80;;;4.80;78.80;;;;;;5087247;28;20024;-57
2021/12/18 08:48:04;;;;;;;2.00;1.90;;;4.80;78.70;;;;;;5077385;28;20103;-57
2021/12/18 08:50:29;;;;;;;2.22;2.08;;;4.80;78.50;;;;;;5079115;28;20017;-57
2021/12/18 08:52:55;;;;;;;2.28;2.08;;;4.80;78.70;;;;;;5083539;28;20553;-55
2021/12/18 08:55:22;;;;;;;1.88;1.77;;;4.80;78.40;;;;;;5085028;28;20034;-56
2021/12/18 08:57:48;;;;;;;2.05;1.85;;;4.70;78.30;;;;;;5087574;28;20021;-58
2021/12/18 09:00:16;;;;;;;2.05;1.95;;;4.70;78.20;;;;;;5077213;28;20039;-57
2021/12/18 09:02:44;;;;;;;2.00;1.90;;;4.70;78.10;;;;;;5077504;28;20107;-57
2021/12/18 09:05:11;;;;;;;2.08;1.98;;;4.70;78.00;;;;;;5086406;28;20043;-58
2021/12/18 09:07:37;;;;;;;2.13;2.00;;;4.70;77.90;;;;;;5089853;28;20028;-58
2021/12/18 09:10:05;;;;;;;2.10;2.00;;;4.70;77.80;;;;;;5081435;28;20020;-58
2021/12/18 09:12:31;;;;;;;2.00;1.90;;;4.70;77.80;;;;;;5091972;28;20032;-58
2021/12/18 09:14:57;;;;;;;1.92;1.83;;;4.70;77.80;;;;;;5088285;28;20036;-58
2021/12/18 09:17:23;;;;;;;1.92;1.83;;;4.60;77.70;;;;;;5078641;28;20047;-57
2021/12/18 09:19:50;;;;;;;2.00;1.90;;;4.70;77.90;;;;;;5088364;28;20028;-58
2021/12/18 09:22:16;;;;;;;2.05;1.85;;;4.70;77.90;;;;;;5079865;28;20044;-58
2021/12/18 09:24:42;;;;;;;1.80;1.70;;;4.70;77.90;;;;;;5082921;28;20040;-57
2021/12/18 09:27:07;;;;;;;2.03;1.83;;;4.70;77.60;;;;;;5081951;28;20048;-57
2021/12/18 09:29:34;;;;;;;1.83;1.73;;;4.60;77.30;;;;;;5080773;28;20115;-58
2021/12/18 09:32:00;;;;;;;1.83;1.73;;;4.70;77.40;;;;;;5085421;28;20024;-58
2021/12/18 09:34:28;;;;;;;2.10;2.00;;;4.60;77.10;;;;;;5076222;28;20532;-54
2021/12/18 09:36:53;;;;;;;2.05;1.95;;;4.60;77.30;;;;;;5085035;28;20028;-57
2021/12/18 09:39:19;;;;;;;2.13;1.95;;;4.60;77.30;;;;;;5086453;28;20035;-57
2021/12/18 09:41:48;;;;;;;1.90;1.80;;;4.60;77.20;;;;;;5077652;28;20060;-57
2021/12/18 09:44:20;;;;;;;2.00;1.90;;;4.70;77.40;;;;;;5080275;28;20384;-57
2021/12/18 09:46:46;;;;;;;2.45;1.90;;;4.70;77.50;;;;;;5081798;28;20032;-57
2021/12/18 09:49:11;;;;;;;2.17;2.08;;;4.70;77.70;;;;;;5078552;28;20036;-58
2021/12/18 09:51:37;;;;;;;2.15;1.95;;;4.70;77.20;;;;;;5074483;28;20472;-57
2021/12/18 09:54:03;;;;;;;1.98;1.88;;;4.70;77.20;;;;;;5088304;28;20483;-58
2021/12/18 09:56:29;;;;;;;1.92;1.83;;;4.70;77.10;;;;;;5083108;28;20024;-58
2021/12/18 09:58:54;;;;;;;1.90;1.80;;;4.70;76.90;;;;;;5083297;28;20032;-56
2021/12/18 10:01:21;;;;;;;2.00;1.90;;;4.60;76.90;;;;;;5087461;28;20032;-57
2021/12/18 10:03:53;;;;;;;2.00;1.90;;;4.60;76.80;;;;;;5082891;28;20032;-56
2021/12/18 10:06:43;;;;;;;2.00;1.90;;;4.60;77.00;;;;;;5076860;28;20110;-56
2021/12/18 10:09:11;;;;;;;2.28;2.08;;;4.60;76.80;;;;;;5077747;28;20024;-58
2021/12/18 10:12:17;;;;;;;2.35;2.17;;;4.60;76.90;;;;;;5078836;28;20024;-57
2021/12/18 10:14:51;;;;;;;1.90;1.80;;;4.60;76.60;;;;;;5079486;28;20068;-58
2021/12/18 10:17:31;;;;;;;1.80;1.70;;;4.60;76.40;;;;;;5083908;28;20027;-56
2021/12/18 10:20:20;;;;;;;2.05;1.95;;;4.50;75.80;;;;;;5083731;28;20025;-58
2021/12/18 10:22:48;;;;;;;1.90;1.80;;;4.50;75.80;;;;;;5089312;28;20052;-58
2021/12/18 10:25:20;;;;;;;2.20;2.10;;;4.50;75.80;;;;;;5079799;28;20039;-53
2021/12/18 10:28:02;;;;;;;2.40;2.30;;;4.50;75.80;;;;;;5084061;28;20111;-58
2021/12/18 10:30:28;;;;;;;2.15;2.05;;;4.60;75.60;;;;;;5080684;28;20484;-57
2021/12/18 10:32:59;;;;;;;2.03;1.92;;;4.60;75.60;;;;;;5080041;28;20036;-58
2021/12/18 10:35:50;;;;;;;2.00;1.90;;;4.60;75.10;;;;;;5079734;28;20541;-55
2021/12/18 10:38:39;;;;;;;;;;;4.60;74.80;;;;;;5077782;28;20017;-58
2021/12/18 10:41:34;;;;;;;2.20;2.00;;;4.50;74.10;;;;;;5079744;28;19912;-55
2021/12/18 10:44:13;;;;;;;2.75;2.55;;;4.60;74.80;;;;;;5080454;28;20089;-58
2021/12/18 10:46:45;;;;;;;2.25;2.05;;;4.50;74.60;;;;;;5076197;28;20024;-56
2021/12/18 10:49:17;;;;;;;1.80;1.73;;;4.60;74.60;;;;;;5085150;28;20023;-58
2021/12/18 10:51:43;;;;;;;;;;;4.60;75.20;;;;;;5082908;28;20443;-55
2021/12/18 10:54:13;;;;;;;1.50;1.40;;;4.50;73.30;;;;;;5081336;28;19918;-54
2021/12/18 10:56:41;;;;;;;1.40;1.40;;;4.50;73.90;;;;;;5082190;28;20075;-56
2021/12/18 10:59:22;;;;;;;1.38;1.38;;;4.50;73.70;;;;;;5082702;28;20079;-57
2021/12/18 11:01:56;;;;;;;1.40;1.40;;;4.50;73.60;;;;;;5076287;28;20098;-55
2021/12/18 11:04:25;;;;;;;1.65;1.55;;;4.50;73.40;;;;;;5079204;28;20044;-57
2021/12/18 11:06:51;;;;;;;1.40;1.40;;;4.50;73.70;;;;;;5078023;28;20522;-57
2021/12/18 11:09:17;;;;;;;1.50;1.50;;;4.40;73.60;;;;;;5075076;28;20016;-53
2021/12/18 11:14:41;;;;;;;1.50;1.42;;;4.50;73.60;;;;;;5079411;28;20073;-57
2021/12/18 11:17:13;;;;;;;2.03;1.88;;;4.50;73.30;;;;;;5081430;28;20024;-55
2021/12/18 11:19:41;;;;;;;2.03;1.67;;;4.50;73.30;;;;;;5086070;28;20460;-56
2021/12/18 11:22:13;;;;;;;1.73;1.63;;;4.50;73.30;;;;;;5087123;28;20143;-57
2021/12/18 11:25:00;;;;;;;1.67;1.67;;;4.50;73.30;;;;;;5075871;28;20419;-58
2021/12/18 11:27:28;;;;;;;1.90;1.80;;;4.40;72.80;;;;;;5078460;28;20021;-56
2021/12/18 11:29:57;;;;;;;1.60;1.60;;;4.40;72.90;;;;;;5089939;28;20027;-55
2021/12/18 11:32:29;;;;;;;1.80;1.70;;;4.40;73.00;;;;;;5082478;28;20032;-57
2021/12/18 11:34:57;;;;;;;1.90;1.80;;;4.40;73.10;;;;;;5082078;28;20028;-56
2021/12/18 11:37:25;;;;;;;1.70;1.60;;;4.30;72.90;;;;;;5075640;28;20388;-58
2021/12/18 11:39:57;;;;;;;1.60;1.52;;;4.30;72.90;;;;;;5082965;28;20486;-57
2021/12/18 11:42:33;;;;;;;1.98;1.88;;;4.30;73.00;;;;;;5076256;28;20040;-56
2021/12/18 11:45:03;;;;;;;1.80;1.70;;;4.30;73.20;;;;;;5079193;28;20036;-57
2021/12/18 11:47:33;;;;;;;1.70;1.60;;;4.20;73.20;;;;;;5081277;28;20016;-58
2021/12/18 11:50:18;;;;;;;1.73;1.63;;;4.20;73.20;;;;;;5087058;28;20012;-57
2021/12/18 11:52:55;;;;;;;1.70;1.60;;;4.20;73.30;;;;;;5087617;28;20024;-56
2021/12/18 11:55:21;;;;;;;1.73;1.63;;;4.20;73.20;;;;;;5084774;28;20024;-57
2021/12/18 11:57:49;;;;;;;1.70;1.60;;;4.20;73.50;;;;;;5083707;28;20020;-57
2021/12/18 12:00:17;;;;;;;1.45;1.45;;;4.20;73.60;;;;;;5081323;28;20021;-57
2021/12/18 12:02:46;;;;;;;1.50;1.50;;;4.20;73.60;;;;;;5076215;28;20496;-58
2021/12/18 12:05:14;;;;;;;1.60;1.55;;;4.20;73.10;;;;;;5085183;28;20034;-58
2021/12/18 12:07:42;;;;;;;1.40;1.30;;;4.20;73.10;;;;;;5077255;28;20024;-57
2021/12/18 12:10:24;;;;;;;1.40;1.40;;;4.20;72.70;;;;;;5081166;28;20107;-57
2021/12/18 12:12:56;;;;;;;1.50;1.50;;;4.20;72.10;;;;;;5081506;28;20032;-57
2021/12/18 12:15:26;;;;;;;1.40;1.40;;;4.20;72.20;;;;;;5086369;28;20058;-56
2021/12/18 12:18:04;;;;;;;1.35;1.35;;;4.20;71.90;;;;;;5080039;28;20077;-57
2021/12/18 12:20:40;;;;;;;1.40;1.40;;;4.10;71.50;;;;;;5091156;28;20027;-54
2021/12/18 12:23:07;;;;;;;1.42;1.33;;;4.10;71.60;;;;;;5077160;28;20541;-57
2021/12/18 12:25:50;;;;;;;1.65;1.60;;;4.10;71.50;;;;;;5082801;28;20020;-58
2021/12/18 12:28:19;;;;;;;1.83;1.73;;;4.10;71.20;;;;;;5084401;28;20119;-56
2021/12/18 12:30:48;;;;;;;1.70;1.60;;;4.10;71.60;;;;;;5073821;28;20016;-57
2021/12/18 12:33:32;;;;;;;1.55;1.55;;;4.10;71.70;;;;;;5082403;28;20021;-56
2021/12/18 12:36:08;;;;;;;1.70;1.60;;;4.10;71.70;;;;;;5086751;28;20035;-57
2021/12/18 12:38:51;;;;;;;1.63;1.52;;;4.10;71.40;;;;;;5077586;28;20620;-57
2021/12/18 12:41:36;;;;;;;3.58;2.50;;;4.10;71.10;;;;;;5078603;28;20020;-57
2021/12/18 12:44:31;;;;;;;2.67;1.90;;;4.10;70.90;;;;;;5076152;28;20025;-56
2021/12/18 12:47:20;;;;;;;1.60;1.50;;;4.10;71.00;;;;;;5080785;28;20028;-53
2021/12/18 12:49:49;;;;;;;1.38;1.38;;;4.00;70.90;;;;;;5081042;28;20495;-58
2021/12/18 12:52:16;;;;;;;1.40;1.40;;;4.00;70.80;;;;;;5086364;28;20025;-57
2021/12/18 12:55:03;;;;;;;1.48;1.48;;;4.00;70.70;;;;;;5081198;28;20025;-58
2021/12/18 12:57:30;;;;;;;1.60;1.50;;;4.00;70.70;;;;;;5089865;28;20020;-57
2021/12/18 12:59:58;;;;;;;1.30;1.30;;;4.00;70.50;;;;;;5084735;28;20027;-57
2021/12/18 13:02:35;;;;;;;1.38;1.38;;;4.00;70.40;;;;;;5080865;28;20059;-57
2021/12/18 13:05:05;;;;;;;1.63;1.60;;;4.00;70.30;;;;;;5079200;28;20115;-57
2021/12/18 13:07:31;;;;;;;1.85;1.75;;;4.00;70.40;;;;;;5094800;28;20117;-56
2021/12/18 13:09:57;;;;;;;1.30;1.30;;;4.00;70.30;;;;;;5096468;28;20567;-56
2021/12/18 13:12:22;;;;;;;1.50;1.50;;;4.00;69.80;;;;;;5093602;28;20028;-57
2021/12/18 13:14:48;;;;;;;1.85;1.75;;;3.90;69.60;;;;;;5081684;28;20024;-56
2021/12/18 13:17:25;;;;;;;1.50;1.50;;;3.90;70.10;;;;;;5080963;28;20036;-57
2021/12/18 13:19:52;;;;;;;1.48;1.48;;;3.90;70.20;;;;;;5095344;28;20028;-54
2021/12/18 13:22:18;;;;;;;1.42;1.42;;;3.90;70.50;;;;;;5084968;28;20053;-56
2021/12/18 13:24:59;;;;;;;1.90;1.80;;;3.90;70.60;;;;;;5080212;28;20383;-55
2021/12/18 13:27:25;;;;;;;1.42;1.40;;;3.90;70.70;;;;;;5075186;28;20035;-56
2021/12/18 13:30:09;;;;;;;1.85;1.75;;;3.90;71.20;;;;;;5076935;28;20021;-58
2021/12/18 13:32:35;;;;;;;1.85;1.75;;;3.90;71.00;;;;;;5075575;28;20032;-57
2021/12/18 13:35:01;;;;;;;1.75;1.63;;;3.90;71.30;;;;;;5089641;28;20016;-56
2021/12/18 13:37:26;;;;;;;1.90;1.80;;;3.90;71.30;;;;;;5091013;28;20052;-57
2021/12/18 13:39:53;;;;;;;1.80;1.70;;;3.90;71.30;;;;;;5079420;28;20031;-57
2021/12/18 13:42:23;;;;;;;1.90;1.80;;;3.90;71.60;;;;;;5094768;28;20032;-57
2021/12/18 13:44:53;;;;;;;2.10;1.90;;;3.90;71.60;;;;;;5095024;28;20020;-57
2021/12/18 13:47:40;;;;;;;2.53;2.33;;;4.00;71.70;;;;;;5076310;28;20488;-57
2021/12/18 13:50:06;;;;;;;1.90;1.80;;;3.90;71.90;;;;;;5093561;28;20016;-58
2021/12/18 13:52:36;;;;;;;1.90;1.80;;;3.90;71.80;;;;;;5088693;28;20021;-58
2021/12/18 13:55:17;;;;;;;1.73;1.73;;;3.90;71.90;;;;;;5089571;28;20027;-57